Time;durP1;ratioP1;P1;durP2;ratioP2;P2;SDS_P1;SDS_P2;PMS_P1;PMS_P2;Temp;Humidity;BMP_temperature;BMP_pressure;BME280_temperature;BME280_humidity;BME280_pressure;Samples;Min_cycle;Max_cycle;Signal;HPM_P1;HPM_P2
2023/12/20 00:00:11;;;;;;;6.70;0.95;;;7.10;99.90;;;;;;5033802;28;20029;-37
2023/12/20 00:02:37;;;;;;;9.70;0.98;;;7.20;99.90;;;;;;5033128;28;20021;-37
2023/12/20 00:05:03;;;;;;;11.77;1.58;;;7.20;99.90;;;;;;5033520;28;20378;-36
2023/12/20 00:07:29;;;;;;;8.43;2.30;;;7.20;99.90;;;;;;5032237;28;20051;-36
2023/12/20 00:09:54;;;;;;;11.23;1.77;;;7.20;99.90;;;;;;5033403;28;20036;-36
2023/12/20 00:12:20;;;;;;;5.13;0.95;;;7.30;99.90;;;;;;5033525;28;20498;-37
2023/12/20 00:14:46;;;;;;;13.98;1.38;;;7.20;99.90;;;;;;5032762;28;20033;-37
2023/12/20 00:17:11;;;;;;;7.40;1.23;;;7.20;99.90;;;;;;5031940;28;20503;-36
2023/12/20 00:19:37;;;;;;;14.02;1.05;;;7.20;99.90;;;;;;5033098;28;20018;-36
2023/12/20 00:22:03;;;;;;;6.07;1.58;;;7.20;99.90;;;;;;5033202;28;20386;-36
2023/12/20 00:24:28;;;;;;;10.85;2.83;;;7.20;99.90;;;;;;5033656;28;20030;-36
2023/12/20 00:26:54;;;;;;;8.32;1.30;;;7.10;99.90;;;;;;5033228;28;20052;-36
2023/12/20 00:29:20;;;;;;;10.10;1.02;;;7.10;99.90;;;;;;5033415;28;20224;-36
2023/12/20 00:31:45;;;;;;;13.73;1.20;;;7.10;99.90;;;;;;5033277;28;20033;-36
2023/12/20 00:34:11;;;;;;;6.88;1.45;;;7.10;99.90;;;;;;5032294;28;20040;-35
2023/12/20 00:36:37;;;;;;;8.60;1.23;;;7.00;99.90;;;;;;5028006;28;20466;-35
2023/12/20 00:39:03;;;;;;;9.48;1.33;;;7.00;99.90;;;;;;5033621;28;20028;-35
2023/12/20 00:41:28;;;;;;;5.88;1.75;;;7.00;99.90;;;;;;5033835;28;20057;-36
2023/12/20 00:43:54;;;;;;;4.57;1.15;;;7.10;99.90;;;;;;5033664;28;20029;-35
2023/12/20 00:46:20;;;;;;;6.53;0.88;;;7.10;99.90;;;;;;5037451;28;20025;-55
2023/12/20 00:48:45;;;;;;;7.50;1.27;;;7.10;99.90;;;;;;5032728;28;20040;-36
2023/12/20 00:51:11;;;;;;;13.90;1.38;;;7.00;99.90;;;;;;5032523;28;20041;-37
2023/12/20 00:53:37;;;;;;;10.98;1.50;;;7.00;99.90;;;;;;5031733;28;20516;-36
2023/12/20 00:56:03;;;;;;;6.22;1.20;;;7.00;99.90;;;;;;5010209;28;20045;-35
2023/12/20 00:58:29;;;;;;;9.10;1.52;;;7.00;99.90;;;;;;5031692;28;20076;-36
2023/12/20 01:00:54;;;;;;;11.15;1.00;;;7.10;99.90;;;;;;5031120;28;20505;-47
2023/12/20 01:03:20;;;;;;;14.73;1.02;;;7.00;99.90;;;;;;5032870;28;20090;-50
2023/12/20 01:05:46;;;;;;;18.70;1.90;;;7.00;99.90;;;;;;5032695;28;20393;-50
2023/12/20 01:08:14;;;;;;;9.80;1.55;;;7.00;99.90;;;;;;5032578;28;20025;-49
2023/12/20 01:10:40;;;;;;;11.00;1.65;;;7.10;99.90;;;;;;5030308;28;20021;-50
2023/12/20 01:13:05;;;;;;;12.88;3.05;;;7.00;99.90;;;;;;5032333;28;20405;-50
2023/12/20 01:15:31;;;;;;;12.40;1.63;;;7.10;99.90;;;;;;5032763;28;20028;-36
2023/12/20 01:17:59;;;;;;;15.20;1.73;;;7.10;99.90;;;;;;5030145;28;20058;-36
2023/12/20 01:20:25;;;;;;;4.05;1.38;;;7.10;99.90;;;;;;5030197;28;20047;-36
2023/12/20 01:22:51;;;;;;;9.93;1.42;;;7.20;99.90;;;;;;5030945;28;20029;-36
2023/12/20 01:25:17;;;;;;;5.95;1.10;;;7.30;99.90;;;;;;5028424;28;20032;-37
2023/12/20 01:27:42;;;;;;;8.52;1.25;;;7.30;99.90;;;;;;5032015;28;20390;-36
2023/12/20 01:30:08;;;;;;;17.75;2.67;;;7.30;99.90;;;;;;5031359;28;20033;-36
2023/12/20 01:32:34;;;;;;;11.32;1.98;;;7.40;99.90;;;;;;5015167;28;20069;-36
2023/12/20 01:35:00;;;;;;;12.63;2.35;;;7.30;99.90;;;;;;5025317;28;20049;-36
2023/12/20 01:37:26;;;;;;;7.88;2.25;;;7.30;99.90;;;;;;5032631;28;20415;-41
2023/12/20 01:39:52;;;;;;;12.40;1.63;;;7.20;99.90;;;;;;5030769;28;20091;-43
2023/12/20 01:42:18;;;;;;;11.07;1.88;;;7.30;99.90;;;;;;5032713;28;20037;-36
2023/12/20 01:44:44;;;;;;;11.18;1.77;;;7.30;99.90;;;;;;5032413;28;20509;-35
2023/12/20 01:47:09;;;;;;;13.48;1.70;;;7.20;99.90;;;;;;5032014;28;20064;-35
2023/12/20 01:49:35;;;;;;;15.30;1.35;;;7.20;99.90;;;;;;5031846;28;20045;-36
2023/12/20 01:52:01;;;;;;;14.27;1.67;;;7.30;99.90;;;;;;5031171;28;20079;-35
2023/12/20 01:54:27;;;;;;;11.02;1.45;;;7.30;99.90;;;;;;5031904;28;20083;-35
2023/12/20 01:56:53;;;;;;;13.50;2.10;;;7.40;99.90;;;;;;5032283;28;20474;-35
2023/12/20 01:59:21;;;;;;;12.82;1.45;;;7.40;99.90;;;;;;5024630;28;20025;-36
2023/12/20 02:01:47;;;;;;;;;;;7.40;99.90;;;;;;5029452;28;20025;-36
2023/12/20 02:04:13;;;;;;;10.05;1.80;;;7.50;99.90;;;;;;5031436;28;19932;-35
2023/12/20 02:06:40;;;;;;;22.90;2.30;;;7.50;99.90;;;;;;5034642;28;20028;-36
2023/12/20 02:09:07;;;;;;;15.97;1.70;;;7.60;99.90;;;;;;5034896;28;20034;-36
2023/12/20 02:11:35;;;;;;;20.88;3.10;;;7.60;99.90;;;;;;5035076;28;20128;-35
2023/12/20 02:14:01;;;;;;;8.75;2.08;;;7.60;99.90;;;;;;5036079;28;20497;-35
2023/12/20 02:16:27;;;;;;;10.55;1.85;;;7.60;99.90;;;;;;5033609;28;20420;-35
2023/12/20 02:18:53;;;;;;;19.58;2.63;;;7.60;99.90;;;;;;5035007;28;20075;-35
2023/12/20 02:21:20;;;;;;;11.13;2.55;;;7.60;99.90;;;;;;5026488;28;20477;-35
2023/12/20 02:23:45;;;;;;;21.05;3.05;;;7.60;99.90;;;;;;5035747;28;20025;-36
2023/12/20 02:26:13;;;;;;;17.30;3.15;;;7.70;99.90;;;;;;5035687;28;20029;-36
2023/12/20 02:28:39;;;;;;;15.35;1.95;;;7.60;99.90;;;;;;5027822;28;20033;-35
2023/12/20 02:31:05;;;;;;;22.15;2.70;;;7.60;99.90;;;;;;5031078;28;20087;-36
2023/12/20 02:33:31;;;;;;;20.00;1.98;;;7.60;99.90;;;;;;5035441;28;20025;-63
2023/12/20 02:35:56;;;;;;;10.57;1.73;;;7.60;99.90;;;;;;5035291;28;20440;-36
2023/12/20 02:38:22;;;;;;;11.38;2.00;;;7.60;99.90;;;;;;5035702;28;20021;-35
2023/12/20 02:40:48;;;;;;;10.15;3.30;;;7.60;99.90;;;;;;5035818;28;20054;-35
2023/12/20 02:43:13;;;;;;;13.75;2.38;;;7.60;99.90;;;;;;5033846;28;20032;-35
2023/12/20 02:45:39;;;;;;;16.70;2.47;;;7.60;99.90;;;;;;5032838;28;20029;-35
2023/12/20 02:48:05;;;;;;;10.88;1.98;;;7.60;99.90;;;;;;5033623;28;20029;-35
2023/12/20 02:50:30;;;;;;;6.18;1.52;;;7.70;99.90;;;;;;5035149;28;20049;-37
2023/12/20 02:52:56;;;;;;;19.83;2.50;;;7.70;99.90;;;;;;5034726;28;20025;-36
2023/12/20 02:55:22;;;;;;;19.00;1.90;;;7.70;99.90;;;;;;5034975;28;20022;-37
2023/12/20 02:57:47;;;;;;;15.18;1.85;;;7.70;99.90;;;;;;5034229;28;20385;-36
2023/12/20 03:00:13;;;;;;;11.68;2.05;;;7.70;99.90;;;;;;5035207;28;20029;-36
2023/12/20 03:02:39;;;;;;;15.23;1.83;;;7.80;99.90;;;;;;5030937;28;20512;-36
2023/12/20 03:05:05;;;;;;;17.50;2.92;;;7.80;99.90;;;;;;5035530;28;20030;-36
2023/12/20 03:07:31;;;;;;;23.58;2.17;;;7.80;99.90;;;;;;5034685;28;20084;-36
2023/12/20 03:09:57;;;;;;;11.02;2.65;;;7.80;99.90;;;;;;5035349;28;20033;-36
2023/12/20 03:12:22;;;;;;;19.88;1.83;;;7.80;99.90;;;;;;5034047;28;20037;-37
2023/12/20 03:14:49;;;;;;;17.73;2.08;;;7.70;99.90;;;;;;5034095;28;20030;-64
2023/12/20 03:17:14;;;;;;;12.45;1.83;;;7.80;99.90;;;;;;5066697;28;20025;-36
2023/12/20 03:19:40;;;;;;;12.07;2.00;;;7.70;99.90;;;;;;5034978;28;20103;-54
2023/12/20 03:22:05;;;;;;;16.80;2.83;;;7.70;99.90;;;;;;5034660;28;20486;-53
2023/12/20 03:24:31;;;;;;;11.50;1.65;;;7.60;99.90;;;;;;5034776;28;20505;-53
2023/12/20 03:26:56;;;;;;;22.60;2.75;;;7.60;99.90;;;;;;5034909;28;20028;-52
2023/12/20 03:29:22;;;;;;;20.17;2.22;;;7.70;99.90;;;;;;5030308;28;20355;-53
2023/12/20 03:31:48;;;;;;;19.00;2.53;;;7.70;99.90;;;;;;5033920;28;20026;-53
2023/12/20 03:34:13;;;;;;;8.75;2.38;;;7.70;99.90;;;;;;5034239;28;20072;-51
2023/12/20 03:36:40;;;;;;;15.00;2.35;;;7.70;99.90;;;;;;5034874;28;20038;-51
2023/12/20 03:39:05;;;;;;;14.63;2.78;;;7.70;99.90;;;;;;5030376;28;20064;-54
2023/12/20 03:41:31;;;;;;;25.67;2.83;;;7.60;99.90;;;;;;5034663;28;20502;-51
2023/12/20 03:43:57;;;;;;;6.18;1.52;;;7.70;99.90;;;;;;5034829;28;20101;-54
2023/12/20 03:46:22;;;;;;;9.60;1.05;;;7.60;99.90;;;;;;5033927;28;20036;-50
2023/12/20 03:48:48;;;;;;;12.10;2.13;;;7.60;99.90;;;;;;5034093;28;20025;-53
2023/12/20 03:51:14;;;;;;;16.50;2.08;;;7.60;99.90;;;;;;5034036;28;20064;-52
2023/12/20 03:53:42;;;;;;;11.60;2.90;;;7.60;99.90;;;;;;5034337;28;20148;-52
2023/12/20 03:56:08;;;;;;;14.50;2.03;;;7.60;99.90;;;;;;5034136;28;20104;-53
2023/12/20 03:58:33;;;;;;;19.13;1.63;;;7.60;99.90;;;;;;5034139;28;20107;-52
2023/12/20 04:00:59;;;;;;;14.77;2.05;;;7.60;99.90;;;;;;5034608;28;20476;-55
2023/12/20 04:03:25;;;;;;;14.18;2.35;;;7.60;99.90;;;;;;5031953;28;20136;-54
2023/12/20 04:05:50;;;;;;;17.50;1.77;;;7.60;99.90;;;;;;5033875;28;20490;-54
2023/12/20 04:08:16;;;;;;;17.48;2.35;;;7.70;99.90;;;;;;5032630;28;20361;-53
2023/12/20 04:10:42;;;;;;;18.80;2.30;;;7.80;99.90;;;;;;5033729;28;20022;-53
2023/12/20 04:13:07;;;;;;;17.30;2.95;;;7.80;99.90;;;;;;5031294;28;20099;-53
2023/12/20 04:15:33;;;;;;;14.13;2.88;;;7.80;99.90;;;;;;5033176;28;20029;-54
2023/12/20 04:17:59;;;;;;;12.30;1.77;;;7.90;99.90;;;;;;5033651;28;20493;-56
2023/12/20 04:20:24;;;;;;;16.70;2.45;;;7.90;99.90;;;;;;5032867;28;20028;-51
2023/12/20 04:22:50;;;;;;;15.02;2.50;;;8.00;99.90;;;;;;5032931;28;20018;-52
2023/12/20 04:25:16;;;;;;;16.02;2.88;;;8.10;99.90;;;;;;5032711;28;20021;-51
2023/12/20 04:27:41;;;;;;;24.33;1.88;;;8.10;99.90;;;;;;5065506;28;20108;-53
2023/12/20 04:30:07;;;;;;;10.15;1.60;;;8.00;99.90;;;;;;5032713;28;20033;-53
2023/12/20 04:32:33;;;;;;;11.20;1.77;;;8.00;99.90;;;;;;5032662;28;20083;-52
2023/12/20 04:34:59;;;;;;;9.30;2.03;;;8.00;99.90;;;;;;5033392;28;20033;-53
2023/12/20 04:37:24;;;;;;;6.03;1.75;;;8.00;99.90;;;;;;5033635;28;20371;-39
2023/12/20 04:39:50;;;;;;;9.15;2.95;;;8.10;99.90;;;;;;5033177;28;20029;-38
2023/12/20 04:42:16;;;;;;;6.63;1.67;;;8.00;99.90;;;;;;5033275;28;20041;-42
2023/12/20 04:44:43;;;;;;;12.23;2.50;;;8.00;99.90;;;;;;5033330;28;20489;-39
2023/12/20 04:47:09;;;;;;;20.73;3.13;;;8.10;99.90;;;;;;5032591;28;20029;-38
2023/12/20 04:49:35;;;;;;;16.70;2.13;;;8.10;99.90;;;;;;5033135;28;20022;-38
2023/12/20 04:52:00;;;;;;;14.77;1.60;;;8.00;99.90;;;;;;5032833;28;20045;-38
2023/12/20 04:54:26;;;;;;;28.45;2.75;;;8.00;99.90;;;;;;5033573;28;20588;-47
2023/12/20 04:56:51;;;;;;;17.70;2.08;;;8.00;99.90;;;;;;5032382;28;20041;-38
2023/12/20 04:59:17;;;;;;;11.65;1.83;;;8.00;99.90;;;;;;5033018;28;20397;-39
2023/12/20 05:01:43;;;;;;;18.60;2.38;;;8.10;99.90;;;;;;5032384;28;20501;-44
2023/12/20 05:04:08;;;;;;;11.98;2.13;;;8.00;99.90;;;;;;5032174;28;20052;-38
2023/12/20 05:06:34;;;;;;;24.58;1.92;;;8.00;99.90;;;;;;5032499;28;20033;-38
2023/12/20 05:09:00;;;;;;;14.75;1.90;;;8.00;99.90;;;;;;5031675;28;20079;-39
2023/12/20 05:11:25;;;;;;;15.23;2.13;;;8.10;99.90;;;;;;5032143;28;20040;-51
2023/12/20 05:13:51;;;;;;;9.55;2.15;;;8.10;99.90;;;;;;5032749;28;20022;-46
2023/12/20 05:16:17;;;;;;;10.50;1.83;;;8.10;99.90;;;;;;5032226;28;20017;-37
2023/12/20 05:18:44;;;;;;;23.88;2.50;;;8.10;99.90;;;;;;5032428;28;20067;-38
2023/12/20 05:21:10;;;;;;;11.48;1.75;;;8.10;99.90;;;;;;5032432;28;20038;-60
2023/12/20 05:23:36;;;;;;;17.90;1.80;;;8.00;99.90;;;;;;5033244;28;20025;-37
2023/12/20 05:26:02;;;;;;;16.35;3.47;;;8.00;99.90;;;;;;5031988;28;20017;-38
2023/12/20 05:28:27;;;;;;;14.25;1.83;;;8.10;99.90;;;;;;5032338;28;20029;-37
2023/12/20 05:30:54;;;;;;;14.35;1.45;;;8.00;99.90;;;;;;5032415;28;20076;-39
2023/12/20 05:33:19;;;;;;;19.83;2.47;;;8.10;99.90;;;;;;5031255;28;20409;-36
2023/12/20 05:35:45;;;;;;;9.10;1.98;;;8.00;99.90;;;;;;5031858;28;20047;-38
2023/12/20 05:38:10;;;;;;;13.85;2.15;;;8.00;99.90;;;;;;5024489;28;20076;-37
2023/12/20 05:40:37;;;;;;;19.63;1.75;;;8.10;99.90;;;;;;5027231;28;20022;-38
2023/12/20 05:43:02;;;;;;;8.13;1.85;;;8.10;99.90;;;;;;5032471;28;20591;-44
2023/12/20 05:45:28;;;;;;;16.38;2.15;;;8.00;99.90;;;;;;5030602;28;20065;-38
2023/12/20 05:47:54;;;;;;;9.23;1.75;;;8.00;99.90;;;;;;5032687;28;20032;-38
2023/12/20 05:50:19;;;;;;;14.23;2.38;;;8.10;99.90;;;;;;5031896;28;20108;-37
2023/12/20 05:52:45;;;;;;;17.50;1.60;;;8.10;99.90;;;;;;5031976;28;20036;-36
2023/12/20 05:55:11;;;;;;;17.25;1.83;;;8.10;99.90;;;;;;5032096;28;20083;-38
2023/12/20 05:57:36;;;;;;;24.10;3.22;;;8.10;99.90;;;;;;5032923;28;20045;-37
2023/12/20 06:00:03;;;;;;;11.88;2.10;;;8.10;99.90;;;;;;5030593;28;20024;-37
2023/12/20 06:02:29;;;;;;;15.77;2.10;;;8.10;99.90;;;;;;5030334;28;20420;-41
2023/12/20 06:04:54;;;;;;;17.58;2.65;;;8.10;99.90;;;;;;5031277;28;20032;-40
2023/12/20 06:07:20;;;;;;;22.23;2.03;;;8.10;99.90;;;;;;5031517;28;20028;-37
2023/12/20 06:09:46;;;;;;;12.40;2.58;;;8.20;99.90;;;;;;5032053;28;20502;-37
2023/12/20 06:12:11;;;;;;;17.95;1.55;;;8.30;99.90;;;;;;5030744;28;20042;-38
2023/12/20 06:14:37;;;;;;;17.08;1.45;;;8.30;99.90;;;;;;5030668;28;20021;-37
2023/12/20 06:17:03;;;;;;;22.92;3.97;;;8.40;99.90;;;;;;5031898;28;20064;-38
2023/12/20 06:19:28;;;;;;;16.48;2.38;;;8.30;99.90;;;;;;5031869;28;20067;-38
2023/12/20 06:21:54;;;;;;;6.05;1.75;;;8.30;99.90;;;;;;5027331;28;20045;-39
2023/12/20 06:24:21;;;;;;;11.65;2.42;;;8.40;99.90;;;;;;5032202;28;20116;-36
2023/12/20 06:26:47;;;;;;;21.35;2.40;;;8.40;99.90;;;;;;5031877;28;20033;-37
2023/12/20 06:29:12;;;;;;;12.20;2.75;;;8.40;99.90;;;;;;5031209;28;20051;-39
2023/12/20 06:31:38;;;;;;;11.63;2.55;;;8.50;99.90;;;;;;5029839;28;20033;-37
2023/12/20 06:34:04;;;;;;;16.95;2.10;;;8.40;99.90;;;;;;5031548;28;20128;-38
2023/12/20 06:36:29;;;;;;;21.88;2.25;;;8.50;99.90;;;;;;5032253;28;20037;-37
2023/12/20 06:38:55;;;;;;;9.63;1.95;;;8.40;99.90;;;;;;5031606;28;20561;-38
2023/12/20 06:41:21;;;;;;;16.85;2.25;;;8.40;99.90;;;;;;5031954;28;20456;-38
2023/12/20 06:43:47;;;;;;;12.10;1.80;;;8.50;99.90;;;;;;5031861;28;20029;-53
2023/12/20 06:46:13;;;;;;;17.60;2.55;;;8.50;99.90;;;;;;5031314;28;20025;-49
2023/12/20 06:48:39;;;;;;;13.63;1.70;;;8.60;99.90;;;;;;5033826;28;20037;-53
2023/12/20 06:51:06;;;;;;;23.67;2.13;;;8.50;99.90;;;;;;5035245;28;20021;-52
2023/12/20 06:53:32;;;;;;;23.92;2.78;;;8.50;99.90;;;;;;5034893;28;20026;-52
2023/12/20 06:55:57;;;;;;;17.70;2.10;;;8.50;99.90;;;;;;5035040;28;20017;-53
2023/12/20 06:58:23;;;;;;;9.43;2.17;;;8.50;99.90;;;;;;5034934;28;20017;-61
2023/12/20 07:00:50;;;;;;;9.95;2.47;;;8.50;99.90;;;;;;5033822;28;20528;-53
2023/12/20 07:03:16;;;;;;;14.63;1.90;;;8.50;99.90;;;;;;5034239;28;20037;-53
2023/12/20 07:05:41;;;;;;;10.88;1.90;;;8.50;99.90;;;;;;5034659;28;20036;-52
2023/12/20 07:08:07;;;;;;;8.90;2.08;;;8.50;99.90;;;;;;5034819;28;20485;-53
2023/12/20 07:10:33;;;;;;;13.18;2.00;;;8.50;99.90;;;;;;5034732;28;20030;-51
2023/12/20 07:12:59;;;;;;;14.30;2.70;;;8.50;99.90;;;;;;5034453;28;20083;-50
2023/12/20 07:15:25;;;;;;;19.80;2.80;;;8.50;99.90;;;;;;5034646;28;20021;-53
2023/12/20 07:17:50;;;;;;;18.70;2.45;;;8.50;99.90;;;;;;5034306;28;20036;-51
2023/12/20 07:20:16;;;;;;;22.58;1.95;;;8.50;99.90;;;;;;5034601;28;20061;-55
2023/12/20 07:22:41;;;;;;;28.45;2.10;;;8.60;99.90;;;;;;5034067;28;20040;-53
2023/12/20 07:25:07;;;;;;;22.77;2.47;;;8.60;99.90;;;;;;5034263;28;20036;-52
2023/12/20 07:27:33;;;;;;;15.38;2.80;;;8.50;99.90;;;;;;5066066;28;20502;-65
2023/12/20 07:29:59;;;;;;;7.63;2.55;;;8.50;99.90;;;;;;5034654;28;20025;-54
2023/12/20 07:32:24;;;;;;;15.80;3.88;;;8.50;99.90;;;;;;5032450;28;20030;-53
2023/12/20 07:34:50;;;;;;;19.75;3.13;;;8.50;99.90;;;;;;5032450;28;20057;-54
2023/12/20 07:37:16;;;;;;;12.40;1.88;;;8.50;99.90;;;;;;5032696;28;20132;-54
2023/12/20 07:39:42;;;;;;;20.10;2.00;;;8.50;99.90;;;;;;5033835;28;20029;-54
2023/12/20 07:42:08;;;;;;;14.35;2.67;;;8.50;99.90;;;;;;5034404;28;20025;-54
2023/12/20 07:44:35;;;;;;;14.65;2.58;;;8.60;99.90;;;;;;5034468;28;20100;-53
2023/12/20 07:47:01;;;;;;;15.63;1.77;;;8.50;99.90;;;;;;5021119;28;20112;-54
2023/12/20 07:49:27;;;;;;;13.68;2.35;;;8.60;99.90;;;;;;5034214;28;20042;-54
2023/12/20 07:51:52;;;;;;;15.15;2.17;;;8.60;99.90;;;;;;5016189;28;20026;-54
2023/12/20 07:54:18;;;;;;;19.67;2.83;;;8.60;99.90;;;;;;5030654;28;20375;-53
2023/12/20 07:56:44;;;;;;;8.75;1.65;;;8.60;99.90;;;;;;5032440;28;20021;-53
2023/12/20 07:59:09;;;;;;;18.05;2.58;;;8.70;99.90;;;;;;5033071;28;20025;-54
2023/12/20 08:01:35;;;;;;;15.50;1.52;;;8.80;99.90;;;;;;5042782;28;20023;-54
2023/12/20 08:04:01;;;;;;;22.33;2.38;;;8.80;99.90;;;;;;5054128;28;20488;-52
2023/12/20 08:06:27;;;;;;;11.45;2.20;;;8.70;99.90;;;;;;5033763;28;20083;-54
2023/12/20 08:08:55;;;;;;;9.57;1.92;;;8.70;99.90;;;;;;5034028;28;20021;-53
2023/12/20 08:11:21;;;;;;;11.90;1.85;;;8.70;99.90;;;;;;5032649;28;20385;-62
2023/12/20 08:13:47;;;;;;;13.50;1.80;;;8.70;99.90;;;;;;5032440;28;20029;-54
2023/12/20 08:16:13;;;;;;;17.52;2.63;;;8.70;99.90;;;;;;5033289;28;20100;-55
2023/12/20 08:18:39;;;;;;;15.52;2.13;;;8.80;99.90;;;;;;5033455;28;20031;-53
2023/12/20 08:21:07;;;;;;;19.15;1.85;;;8.80;99.90;;;;;;5033047;28;20501;-52
2023/12/20 08:23:34;;;;;;;19.75;2.00;;;8.80;99.90;;;;;;5033312;28;20067;-52
2023/12/20 08:26:06;;;;;;;10.82;1.58;;;8.80;99.90;;;;;;5031551;28;20040;-54
2023/12/20 08:28:32;;;;;;;21.80;2.47;;;8.80;99.90;;;;;;5033227;28;20510;-55
2023/12/20 08:30:58;;;;;;;10.55;3.67;;;8.90;99.90;;;;;;5033283;28;20156;-55
2023/12/20 08:33:24;;;;;;;13.02;2.15;;;8.80;99.90;;;;;;5033245;28;20116;-52
2023/12/20 08:35:50;;;;;;;14.32;1.83;;;8.90;99.90;;;;;;5033418;28;20512;-53
2023/12/20 08:38:16;;;;;;;24.52;2.92;;;8.90;99.90;;;;;;5033659;28;20474;-55
2023/12/20 08:40:42;;;;;;;9.73;2.78;;;9.00;99.90;;;;;;5033873;28;20120;-54
2023/12/20 08:43:08;;;;;;;20.10;3.03;;;8.90;99.90;;;;;;5033396;28;20056;-55
2023/12/20 08:45:33;;;;;;;17.10;1.70;;;8.90;99.90;;;;;;5032309;28;20040;-54
2023/12/20 08:47:59;;;;;;;11.70;1.15;;;8.90;99.90;;;;;;5032507;28;20064;-55
2023/12/20 08:50:25;;;;;;;11.98;1.77;;;9.00;99.90;;;;;;5031494;28;20029;-64
2023/12/20 08:52:51;;;;;;;13.63;2.22;;;9.00;99.90;;;;;;5033268;28;20544;-40
2023/12/20 08:55:18;;;;;;;10.40;2.05;;;9.00;99.90;;;;;;5019511;28;20081;-48
2023/12/20 08:57:44;;;;;;;17.25;1.55;;;8.90;99.90;;;;;;5013833;28;20433;-42
2023/12/20 09:00:10;;;;;;;23.73;2.90;;;9.00;99.90;;;;;;5024316;28;20026;-41
2023/12/20 09:02:36;;;;;;;12.88;1.58;;;9.00;99.90;;;;;;5031867;28;20040;-53
2023/12/20 09:05:02;;;;;;;17.17;2.50;;;9.00;99.90;;;;;;5032934;28;20037;-52
2023/12/20 09:07:30;;;;;;;11.45;1.98;;;9.00;99.90;;;;;;5032316;28;20045;-55
2023/12/20 09:09:56;;;;;;;18.65;2.10;;;9.10;99.90;;;;;;5032558;28;20108;-53
2023/12/20 09:12:22;;;;;;;9.13;1.80;;;9.00;99.90;;;;;;5030068;28;20581;-54
2023/12/20 09:14:49;;;;;;;10.13;1.33;;;9.00;99.90;;;;;;5032563;28;20374;-53
2023/12/20 09:17:16;;;;;;;26.93;2.20;;;9.00;99.90;;;;;;5032515;28;20021;-54
2023/12/20 09:19:43;;;;;;;16.55;2.30;;;9.10;99.90;;;;;;5031686;28;20100;-54
2023/12/20 09:22:09;;;;;;;9.77;1.58;;;9.10;99.90;;;;;;5032882;28;20025;-54
2023/12/20 09:24:35;;;;;;;8.25;1.95;;;9.20;99.90;;;;;;5024801;28;20111;-54
2023/12/20 09:27:01;;;;;;;10.25;2.17;;;9.20;99.90;;;;;;5030773;28;20497;-50
2023/12/20 09:29:27;;;;;;;7.20;1.65;;;9.20;99.90;;;;;;5032485;28;20060;-54
2023/12/20 09:31:52;;;;;;;7.07;1.42;;;9.10;99.90;;;;;;5031512;28;20104;-55
2023/12/20 09:34:18;;;;;;;26.10;3.42;;;9.10;99.90;;;;;;5031938;28;20069;-55
2023/12/20 09:36:47;;;;;;;22.42;2.35;;;9.10;99.90;;;;;;5032260;28;20029;-56
2023/12/20 09:39:23;;;;;;;17.55;1.60;;;9.20;99.90;;;;;;5031397;28;20022;-54
2023/12/20 09:42:03;;;;;;;17.60;1.92;;;9.20;99.90;;;;;;5032250;28;20462;-55
2023/12/20 09:44:29;;;;;;;13.60;1.98;;;9.10;99.90;;;;;;5032535;28;20481;-54
2023/12/20 09:46:56;;;;;;;17.02;2.63;;;9.10;99.90;;;;;;5032587;28;20489;-54
2023/12/20 09:49:22;;;;;;;27.58;2.45;;;9.10;99.90;;;;;;5032439;28;20490;-59
2023/12/20 09:51:51;;;;;;;22.50;2.10;;;9.10;99.90;;;;;;5032853;28;20493;-54
2023/12/20 09:54:18;;;;;;;10.80;2.05;;;9.20;99.90;;;;;;5032263;28;20057;-54
2023/12/20 09:56:44;;;;;;;12.65;2.45;;;9.20;99.90;;;;;;5032197;28;20486;-54
2023/12/20 09:59:10;;;;;;;13.93;1.98;;;9.20;99.90;;;;;;5032303;28;20506;-55
2023/12/20 10:01:37;;;;;;;15.00;1.65;;;9.20;99.90;;;;;;5032133;28;20092;-42
2023/12/20 10:04:12;;;;;;;10.35;1.58;;;9.20;99.90;;;;;;5032147;28;20037;-40
2023/12/20 10:06:39;;;;;;;24.77;2.85;;;9.30;99.90;;;;;;5032264;28;20025;-42
2023/12/20 10:09:05;;;;;;;16.38;1.50;;;9.30;99.90;;;;;;5031480;28;20025;-42
2023/12/20 10:11:31;;;;;;;21.88;1.92;;;9.40;99.90;;;;;;5031652;28;20521;-41
2023/12/20 10:14:03;;;;;;;11.80;2.05;;;9.40;99.90;;;;;;5032186;28;20539;-50
2023/12/20 10:16:29;;;;;;;19.90;2.63;;;9.30;99.90;;;;;;5032206;28;20100;-43
2023/12/20 10:18:56;;;;;;;16.63;2.33;;;9.40;99.90;;;;;;5031413;28;20022;-41
2023/12/20 10:21:22;;;;;;;13.93;2.55;;;9.40;99.90;;;;;;5032393;28;20041;-40
2023/12/20 10:23:51;;;;;;;8.50;1.35;;;9.30;99.90;;;;;;5035538;28;20451;-40
2023/12/20 10:26:26;;;;;;;12.80;2.88;;;9.40;99.90;;;;;;5035924;28;20470;-45
2023/12/20 10:29:04;;;;;;;13.65;1.48;;;9.50;99.90;;;;;;5035834;28;20398;-41
2023/12/20 10:31:31;;;;;;;13.60;1.90;;;9.50;99.90;;;;;;5035755;28;20440;-41
2023/12/20 10:33:59;;;;;;;9.15;1.70;;;9.60;99.90;;;;;;5035531;28;20579;-40
2023/12/20 10:36:29;;;;;;;19.42;2.13;;;9.60;99.90;;;;;;5035672;28;20057;-42
2023/12/20 10:38:57;;;;;;;11.38;1.95;;;9.60;99.90;;;;;;5035924;28;20026;-40
2023/12/20 10:41:31;;;;;;;10.27;1.65;;;9.60;99.90;;;;;;5035863;28;20500;-44
2023/12/20 10:44:01;;;;;;;12.18;2.22;;;9.60;99.90;;;;;;5024125;28;20536;-43
2023/12/20 10:46:28;;;;;;;16.52;1.98;;;9.60;99.90;;;;;;5035613;28;20040;-42
2023/12/20 10:48:55;;;;;;;21.97;2.27;;;9.50;99.90;;;;;;5035485;28;20505;-41
2023/12/20 10:51:22;;;;;;;16.27;1.85;;;9.50;99.90;;;;;;5035505;28;20105;-42
2023/12/20 10:53:49;;;;;;;8.52;1.70;;;9.60;99.90;;;;;;5034036;28;20557;-40
2023/12/20 10:56:18;;;;;;;6.50;1.63;;;9.50;99.90;;;;;;5035279;28;20478;-43
2023/12/20 10:58:45;;;;;;;18.42;2.20;;;9.60;99.90;;;;;;5035142;28;20068;-40
2023/12/20 11:01:14;;;;;;;5.88;1.52;;;9.60;99.90;;;;;;5034240;28;20025;-43
2023/12/20 11:03:50;;;;;;;12.05;2.15;;;9.70;99.90;;;;;;5034925;28;20493;-44
2023/12/20 11:06:37;;;;;;;10.18;2.08;;;9.80;99.90;;;;;;5035065;28;20030;-42
2023/12/20 11:09:18;;;;;;;15.00;2.03;;;9.90;99.90;;;;;;5034875;28;20493;-42
2023/12/20 11:12:05;;;;;;;15.13;3.03;;;10.00;99.90;;;;;;5034705;28;20499;-42
2023/12/20 11:15:02;;;;;;;10.47;1.63;;;10.10;99.90;;;;;;5034716;28;20754;-66
2023/12/20 11:17:28;;;;;;;;;;;10.10;99.90;;;;;;5019042;28;20546;-42
2023/12/20 11:19:56;;;;;;;12.82;2.13;;;10.10;99.90;;;;;;5035379;28;19909;-41
2023/12/20 11:22:24;;;;;;;10.77;2.13;;;10.20;99.90;;;;;;5034401;28;20537;-44
2023/12/20 11:24:51;;;;;;;10.93;2.40;;;10.10;99.90;;;;;;5034643;28;20064;-61
2023/12/20 11:27:18;;;;;;;4.87;1.30;;;9.90;99.90;;;;;;5034542;28;20029;-41
2023/12/20 11:29:56;;;;;;;4.27;1.60;;;10.00;99.90;;;;;;5034476;28;20267;-45
2023/12/20 11:32:28;;;;;;;18.13;2.17;;;10.00;99.90;;;;;;5034817;28;20513;-41
2023/12/20 11:35:14;;;;;;;11.35;1.38;;;10.00;99.90;;;;;;5032367;28;20026;-43
2023/12/20 11:37:43;;;;;;;13.05;2.47;;;9.90;99.90;;;;;;5036117;28;20042;-41
2023/12/20 11:40:15;;;;;;;5.32;1.25;;;9.90;99.90;;;;;;5034181;28;20486;-40
2023/12/20 11:42:51;;;;;;;9.13;1.60;;;9.90;99.90;;;;;;5034668;28;20029;-42
2023/12/20 11:45:27;;;;;;;8.93;1.30;;;9.90;99.90;;;;;;5034993;28;20097;-45
2023/12/20 11:47:55;;;;;;;12.00;1.75;;;9.90;99.90;;;;;;5034094;28;20049;-43
2023/12/20 11:50:23;;;;;;;19.98;2.50;;;9.90;99.90;;;;;;5034537;28;20029;-42
2023/12/20 11:52:49;;;;;;;26.63;2.28;;;9.90;99.90;;;;;;5033862;28;20390;-40
2023/12/20 11:55:15;;;;;;;13.23;1.90;;;10.00;99.90;;;;;;5034464;28;20021;-42
2023/12/20 11:57:42;;;;;;;14.75;2.50;;;10.00;99.90;;;;;;5035020;28;20101;-40
2023/12/20 12:00:08;;;;;;;10.32;1.52;;;9.90;99.90;;;;;;5034094;28;20501;-44
2023/12/20 12:02:34;;;;;;;11.70;1.67;;;10.00;99.90;;;;;;5033283;28;20040;-48
2023/12/20 12:05:00;;;;;;;19.45;1.80;;;10.00;99.90;;;;;;5033839;28;20060;-41
2023/12/20 12:07:26;;;;;;;6.57;1.30;;;10.00;99.90;;;;;;5034001;28;20051;-44
2023/12/20 12:09:52;;;;;;;14.63;1.75;;;10.10;99.90;;;;;;5034151;28;20425;-45
2023/12/20 12:12:19;;;;;;;10.25;1.45;;;10.00;99.90;;;;;;5033478;28;20045;-42
2023/12/20 12:14:45;;;;;;;7.47;1.58;;;10.00;99.90;;;;;;5033160;28;20026;-43
2023/12/20 12:17:15;;;;;;;16.55;2.47;;;10.00;99.90;;;;;;5033698;28;20100;-44
2023/12/20 12:19:42;;;;;;;9.70;1.40;;;9.90;99.90;;;;;;5033987;28;20506;-43
2023/12/20 12:22:16;;;;;;;16.33;1.67;;;9.90;99.90;;;;;;5033452;28;20500;-45
2023/12/20 12:24:42;;;;;;;9.45;1.30;;;10.00;99.90;;;;;;5033933;28;20096;-42
2023/12/20 12:27:08;;;;;;;16.73;1.70;;;10.00;99.90;;;;;;5033801;28;20100;-44
2023/12/20 12:29:34;;;;;;;17.50;1.25;;;9.90;99.90;;;;;;5032578;28;20018;-45
2023/12/20 12:32:00;;;;;;;10.23;2.20;;;10.00;99.90;;;;;;5031447;28;20037;-44
2023/12/20 12:34:29;;;;;;;7.00;0.95;;;10.00;99.90;;;;;;5032414;28;20564;-68
2023/12/20 12:36:56;;;;;;;8.18;1.65;;;10.10;99.90;;;;;;5032778;28;20538;-44
2023/12/20 12:39:25;;;;;;;6.53;1.30;;;10.00;99.90;;;;;;5033652;28;20109;-41
2023/12/20 12:41:50;;;;;;;7.47;1.48;;;10.10;99.90;;;;;;5033074;28;20037;-43
2023/12/20 12:44:17;;;;;;;4.85;1.08;;;10.10;99.90;;;;;;5032145;28;20453;-45